Main page
Satellite images 10-day forecastsClimateMarine weather Cyclones Lightning AirportsFAQ Newsletter About
Weather : Europe Africa North America South America Asia Australia-Oceania Others
Languages Contact

Asunción, Paraguay

Silvio Pettirossi International Airport

latitude: 25-16S, longitude: 057-38W, elevation: 101 m


METAR: SGAS 311300Z 06007KT 020V090 CAVOK 30/16 Q1014
TAF: SGAS 311027Z 3112/0112 00000KT CAVOK TX36/3119Z TN22/0110Z BECMG 3122/0101 02006KT 8000 NSC FM010200 CAVOK

Time: 09:14 (13:14 UTC)

Current weather observation

The report was made 14 minutes ago, at 13:00 UTC
Wind 7 kt from the East/Northeast, varying between North/Northeast and East
Temperature 30°C
Humidity 43%
Pressure 1014 hPa
Visibility 10 km or more
no clouds below 1500 m and no cumulonimbus

Change units

Forecast

The report was made 2 hours and 47 minutes ago, at 10:27 UTC
Forecast valid from 31 at 12 UTC to 01 at 12 UTC
Wind kt from the North
Visibility 10 km or more
no clouds below 1500 m and no cumulonimbus
Becoming
from 31 at 22 UTC to 01 at 01 UTC
Wind 6 kt from the North/Northeast
Visibility: 8000 m
From 01 at 0200 UTC
Visibility 10 km or more
no clouds below 1500 m and no cumulonimbus
The information on this site is subject to a disclaimer
Weather : Europe Africa North America South America Asia Australia-Oceania Others
Satellite images 10-day forecastsClimateMarine weather Cyclones Lightning AirportsFAQ Languages Contact Newsletter About